createdAt,value
2018-03-24T00:01:39.295Z,99598.72
2018-03-24T00:04:07.566Z,99592.27
2018-03-24T00:06:35.848Z,99599.99
2018-03-24T00:09:04.116Z,99593.95
2018-03-24T00:11:32.377Z,99588.83
2018-03-24T00:14:00.676Z,99593.59
2018-03-24T00:16:28.944Z,99589.73
2018-03-24T00:18:57.219Z,99587.14
2018-03-24T00:21:25.488Z,99587.16
2018-03-24T00:23:53.762Z,99580.71
2018-03-24T00:26:22.036Z,99582.00
2018-03-24T00:28:50.324Z,99582.47
2018-03-24T00:31:18.592Z,99579.86
2018-03-24T00:33:46.864Z,99580.30
2018-03-24T00:36:15.151Z,99577.68
2018-03-24T00:38:43.418Z,99582.87
2018-03-24T00:41:11.700Z,99570.47
2018-03-24T00:43:39.964Z,99579.91
2018-03-24T00:46:08.240Z,99574.31
2018-03-24T00:48:36.511Z,99582.92
2018-03-24T00:51:05.723Z,99573.48
2018-03-24T00:53:33.992Z,99575.61
2018-03-24T00:56:02.281Z,99589.80
2018-03-24T00:58:30.549Z,99579.05
2018-03-24T01:00:58.820Z,99581.63
2018-03-24T01:03:27.092Z,99587.21
2018-03-24T01:05:55.364Z,99589.80
2018-03-24T01:08:23.644Z,99587.64
2018-03-24T01:10:51.924Z,99591.11
2018-03-24T01:13:20.229Z,99597.09
2018-03-24T01:15:48.503Z,99595.81
2018-03-24T01:18:16.764Z,99593.22
2018-03-24T01:20:45.043Z,99599.23
2018-03-24T01:23:13.332Z,99605.68
2018-03-24T01:25:41.620Z,99596.59
2018-03-24T01:28:10.186Z,99593.19
2018-03-24T01:30:38.452Z,99597.01
2018-03-24T01:33:06.774Z,99601.66
2018-03-24T01:35:35.043Z,99603.30
2018-03-24T01:38:03.343Z,99601.69
2018-03-24T01:40:31.635Z,99601.16
2018-03-24T01:42:59.911Z,99599.98
2018-03-24T01:45:28.184Z,99601.25
2018-03-24T01:47:56.477Z,99600.85
2018-03-24T01:50:24.739Z,99601.24
2018-03-24T01:52:53.029Z,99600.34
2018-03-24T01:55:21.295Z,99595.62
2018-03-24T01:57:49.580Z,99601.67
2018-03-24T02:00:17.846Z,99594.85
2018-03-24T02:02:46.119Z,99604.25
2018-03-24T02:05:14.404Z,99592.59
2018-03-24T02:07:42.676Z,99597.66
2018-03-24T02:10:10.960Z,99598.67
2018-03-24T02:12:39.244Z,99589.04
2018-03-24T02:15:07.524Z,99597.13
2018-03-24T02:17:35.798Z,99587.78
2018-03-24T02:20:04.072Z,99590.80
2018-03-24T02:22:32.350Z,99577.95
2018-03-24T02:25:13.379Z,99584.31
2018-03-24T02:27:41.651Z,99581.79
2018-03-24T02:30:09.941Z,99580.53
2018-03-24T02:32:38.222Z,99573.66
2018-03-24T02:35:06.483Z,99577.52
2018-03-24T02:37:34.768Z,99569.80
2018-03-24T02:40:03.039Z,99579.17
2018-03-24T02:42:31.320Z,99582.46
2018-03-24T02:44:59.601Z,99577.44
2018-03-24T02:47:27.880Z,99584.98
2018-03-24T02:49:56.152Z,99577.38
2018-03-24T02:52:24.437Z,99576.52
2018-03-24T02:54:52.717Z,99576.58
2018-03-24T02:57:20.983Z,99577.03
2018-03-24T02:59:49.257Z,99581.59
2018-03-24T03:02:17.533Z,99576.91
2018-03-24T03:04:45.819Z,99575.97
2018-03-24T03:07:14.092Z,99580.27
2018-03-24T03:09:42.371Z,99583.61
2018-03-24T03:12:10.644Z,99577.74
2018-03-24T03:14:38.936Z,99579.48
2018-03-24T03:17:07.208Z,99579.50
2018-03-24T03:19:35.484Z,99571.81
2018-03-24T03:22:03.768Z,99566.75
2018-03-24T03:24:32.040Z,99568.50
2018-03-24T03:27:00.323Z,99553.03
2018-03-24T03:29:28.596Z,99552.20
2018-03-24T03:32:01.883Z,99556.02
2018-03-24T03:34:30.160Z,99558.09
2018-03-24T03:37:03.004Z,99555.52
2018-03-24T03:39:31.280Z,99553.51
2018-03-24T03:41:59.560Z,99556.05
2018-03-24T03:44:27.840Z,99558.16
2018-03-24T03:46:56.116Z,99563.72
2018-03-24T03:49:24.392Z,99562.39
2018-03-24T03:51:52.668Z,99561.05
2018-03-24T03:54:20.947Z,99565.02
2018-03-24T03:56:49.227Z,99561.16
2018-03-24T03:59:17.511Z,99568.39
2018-03-24T04:01:45.780Z,99561.22
2018-03-24T04:04:14.051Z,99565.05
2018-03-24T04:06:42.324Z,99559.49
2018-03-24T04:09:10.591Z,99555.59
2018-03-24T04:11:38.876Z,99553.05
2018-03-24T04:14:07.156Z,99559.03
2018-03-24T04:16:35.440Z,99557.30
2018-03-24T04:19:03.708Z,99555.19
2018-03-24T04:21:31.972Z,99553.89
2018-03-24T04:24:00.260Z,99556.44
2018-03-24T04:26:28.542Z,99556.05
2018-03-24T04:28:56.820Z,99556.06
2018-03-24T04:31:25.096Z,99555.27
2018-03-24T04:33:53.372Z,99557.41
2018-03-24T04:36:21.645Z,99559.56
2018-03-24T04:38:49.931Z,99559.58
2018-03-24T04:41:18.208Z,99561.74
2018-03-24T04:43:46.468Z,99560.88
2018-03-24T04:46:14.820Z,99566.87
2018-03-24T04:48:43.093Z,99556.11
2018-03-24T04:51:11.363Z,99561.70
2018-03-24T04:53:39.640Z,99563.42
2018-03-24T04:56:07.935Z,99563.38
2018-03-24T04:58:36.200Z,99566.34
2018-03-24T05:01:04.472Z,99556.51
2018-03-24T05:03:32.768Z,99563.44
2018-03-24T05:06:01.031Z,99558.30
2018-03-24T05:08:29.320Z,99554.89
2018-03-24T05:10:57.595Z,99554.89
2018-03-24T05:13:25.888Z,99547.59
2018-03-24T05:15:54.161Z,99548.82
2018-03-24T05:18:22.432Z,99550.13
2018-03-24T05:20:50.720Z,99544.91
2018-03-24T05:23:18.997Z,99549.66
2018-03-24T05:25:47.280Z,99552.31
2018-03-24T05:28:15.556Z,99555.29
2018-03-24T05:30:43.844Z,99557.00
2018-03-24T05:33:12.134Z,99561.31
2018-03-24T05:35:40.408Z,99564.66
2018-03-24T05:38:08.685Z,99565.53
2018-03-24T05:40:36.958Z,99557.79
2018-03-24T05:43:05.247Z,99556.59
2018-03-24T05:45:33.520Z,99553.64
2018-03-24T05:48:01.814Z,99551.09
2018-03-24T05:50:30.091Z,99561.83
2018-03-24T05:52:58.375Z,99562.72
2018-03-24T05:55:27.513Z,99562.70
2018-03-24T05:57:55.796Z,99561.00
2018-03-24T06:00:24.087Z,99563.15
2018-03-24T06:02:52.362Z,99561.85
2018-03-24T06:05:20.640Z,99566.14
2018-03-24T06:07:48.909Z,99558.48
2018-03-24T06:10:17.195Z,99563.15
2018-03-24T06:12:45.464Z,99560.19
2018-03-24T06:15:13.747Z,99560.61
2018-03-24T06:17:42.012Z,99560.61
2018-03-24T06:20:10.310Z,99568.34
2018-03-24T06:22:38.580Z,99573.94
2018-03-24T06:25:06.848Z,99564.92
2018-03-24T06:27:35.141Z,99572.20
2018-03-24T06:30:03.918Z,99568.77
2018-03-24T06:32:32.212Z,99570.06
2018-03-24T06:35:00.475Z,99567.47
2018-03-24T06:37:28.760Z,99571.27
2018-03-24T06:39:57.028Z,99565.65
2018-03-24T06:42:25.316Z,99567.30
2018-03-24T06:44:53.626Z,99571.10
2018-03-24T06:47:21.860Z,99571.95
2018-03-24T06:49:50.152Z,99572.86
2018-03-24T06:52:18.438Z,99573.73
2018-03-24T06:54:46.707Z,99565.03
2018-03-24T06:57:14.980Z,99573.02
2018-03-24T06:59:43.269Z,99574.83
2018-03-24T07:02:11.545Z,99563.30
2018-03-24T07:04:39.833Z,99565.58
2018-03-24T07:07:08.120Z,99564.47
2018-03-24T07:09:36.392Z,99573.33
2018-03-24T07:12:04.675Z,99578.41
2018-03-24T07:14:32.944Z,99567.23
2018-03-24T07:17:01.246Z,99570.27
2018-03-24T07:19:29.528Z,99570.51
2018-03-24T07:21:57.825Z,99570.02
2018-03-24T07:24:26.121Z,99572.16
2018-03-24T07:26:54.399Z,99580.10
2018-03-24T07:29:22.694Z,99577.05
2018-03-24T07:31:50.991Z,99576.38
2018-03-24T07:34:19.272Z,99574.03
2018-03-24T07:36:47.585Z,99571.59
2018-03-24T07:39:15.853Z,99574.19
2018-03-24T07:41:44.133Z,99571.24
2018-03-24T07:44:12.428Z,99575.52
2018-03-24T07:46:40.710Z,99575.66
2018-03-24T07:49:09.094Z,99578.05
2018-03-24T07:51:38.107Z,99586.34
2018-03-24T07:54:06.564Z,99585.04
2018-03-24T07:56:34.867Z,99594.56
2018-03-24T07:59:03.147Z,99584.67
2018-03-24T08:01:31.453Z,99590.08
2018-03-24T08:03:59.752Z,99600.98
2018-03-24T08:06:28.032Z,99595.63
2018-03-24T08:08:56.308Z,99598.53
2018-03-24T08:11:24.580Z,99605.14
2018-03-24T08:13:52.877Z,99603.08
2018-03-24T08:16:21.153Z,99598.48
2018-03-24T08:18:49.446Z,99593.52
2018-03-24T08:21:17.741Z,99600.30
2018-03-24T08:23:46.097Z,99602.16
2018-03-24T08:26:14.374Z,99605.08
2018-03-24T08:28:42.656Z,99600.13
2018-03-24T08:31:10.961Z,99600.23
2018-03-24T08:33:39.248Z,99611.05
2018-03-24T08:36:07.536Z,99617.30
2018-03-24T08:38:35.822Z,99601.17
2018-03-24T08:41:04.123Z,99605.28
2018-03-24T08:43:32.401Z,99603.38
2018-03-24T08:46:00.704Z,99601.66
2018-03-24T08:48:28.972Z,99603.48
2018-03-24T08:50:57.258Z,99609.38
2018-03-24T08:53:25.544Z,99609.53
2018-03-24T08:55:53.830Z,99620.72
2018-03-24T08:58:22.107Z,99620.20
2018-03-24T09:00:50.396Z,99619.02
2018-03-24T09:03:18.724Z,99622.44
2018-03-24T09:05:46.996Z,99615.58
2018-03-24T09:08:15.272Z,99625.28
2018-03-24T09:10:43.565Z,99633.37
2018-03-24T09:13:11.876Z,99632.75
2018-03-24T09:15:57.304Z,99627.78
2018-03-24T09:18:25.579Z,99627.27
2018-03-24T09:20:53.868Z,99624.25
2018-03-24T09:23:22.163Z,99631.20
2018-03-24T09:25:50.428Z,99639.19
2018-03-24T09:28:18.708Z,99631.70
2018-03-24T09:30:47.000Z,99621.91
2018-03-24T09:33:15.281Z,99615.92
2018-03-24T09:35:43.587Z,99616.95
2018-03-24T09:38:11.861Z,99620.98
2018-03-24T09:40:40.145Z,99629.83
2018-03-24T09:43:08.442Z,99626.39
2018-03-24T09:45:36.745Z,99629.97
2018-03-24T09:48:05.037Z,99634.81
2018-03-24T09:53:27.321Z,99625.34
2018-03-24T09:55:55.610Z,99628.99
2018-03-24T09:58:23.894Z,99635.30
2018-03-24T10:00:52.196Z,99634.48
2018-03-24T10:03:20.516Z,99637.20
2018-03-24T10:05:48.806Z,99635.54
2018-03-24T10:08:17.086Z,99633.80
2018-03-24T10:10:45.372Z,99631.63
2018-03-24T10:13:13.653Z,99625.19
2018-03-24T10:15:55.601Z,99622.68
2018-03-24T10:18:29.188Z,99624.47
2018-03-24T10:21:00.107Z,99626.28
2018-03-24T10:26:56.328Z,99623.58
2018-03-24T10:29:24.600Z,99629.47
2018-03-24T10:32:02.661Z,99620.77
2018-03-24T10:34:31.848Z,99628.84
2018-03-24T10:37:00.160Z,99623.64
2018-03-24T10:39:28.462Z,99624.78
2018-03-24T10:41:56.790Z,99618.97
2018-03-24T10:44:25.081Z,99622.52
2018-03-24T10:46:53.412Z,99615.69
2018-03-24T10:49:21.706Z,99612.38
2018-03-24T10:51:56.453Z,99605.64
2018-03-24T10:54:24.758Z,99601.06
2018-03-24T10:57:02.813Z,99613.54
2018-03-24T10:59:31.120Z,99608.53
2018-03-24T11:02:03.524Z,99608.44
2018-03-24T11:04:32.464Z,99596.31
2018-03-24T11:07:01.458Z,99602.67
2018-03-24T11:09:29.747Z,99600.08
2018-03-24T11:11:58.047Z,99598.52
2018-03-24T11:14:26.305Z,99596.69
2018-03-24T11:16:54.611Z,99601.05
2018-03-24T11:19:22.889Z,99592.07
2018-03-24T11:21:51.172Z,99596.45
2018-03-24T11:24:19.452Z,99588.56
2018-03-24T11:26:47.740Z,99584.77
2018-03-24T11:29:16.008Z,99586.02
2018-03-24T11:31:44.309Z,99594.80
2018-03-24T11:34:12.570Z,99598.09
2018-03-24T11:36:40.844Z,99581.52
2018-03-24T11:39:09.158Z,99578.07
2018-03-24T11:41:37.432Z,99572.53
2018-03-24T11:44:05.715Z,99568.38
2018-03-24T11:46:33.996Z,99550.50
2018-03-24T11:49:02.281Z,99569.47
2018-03-24T11:51:30.544Z,99568.02
2018-03-24T11:53:58.836Z,99567.37
2018-03-24T11:56:27.112Z,99558.08
2018-03-24T11:58:55.408Z,99561.64
2018-03-24T12:01:25.639Z,99565.05
2018-03-24T12:03:53.904Z,99567.92
2018-03-24T12:06:22.189Z,99565.44
2018-03-24T12:08:50.456Z,99564.77
2018-03-24T12:11:18.737Z,99551.79
2018-03-24T12:13:47.007Z,99561.73
2018-03-24T12:16:15.296Z,99551.81
2018-03-24T12:18:43.572Z,99559.87
2018-03-24T12:21:11.844Z,99559.13
2018-03-24T12:23:40.129Z,99564.05
2018-03-24T12:26:08.402Z,99561.34
2018-03-24T12:28:36.687Z,99555.64
2018-03-24T12:31:04.952Z,99556.97
2018-03-24T12:33:33.236Z,99558.34
2018-03-24T12:36:01.510Z,99557.19
2018-03-24T12:38:29.792Z,99556.44
2018-03-24T12:40:58.056Z,99547.47
2018-03-24T12:43:26.336Z,99546.03
2018-03-24T12:45:54.620Z,99538.83
2018-03-24T12:48:22.893Z,99543.55
2018-03-24T12:50:51.193Z,99544.24
2018-03-24T12:53:19.466Z,99556.50
2018-03-24T12:55:47.740Z,99547.16
2018-03-24T12:58:16.014Z,99541.95
2018-03-24T13:00:44.296Z,99545.23
2018-03-24T13:03:12.565Z,99542.59
2018-03-24T13:05:40.838Z,99547.16
2018-03-24T13:08:09.116Z,99543.94
2018-03-24T13:10:37.414Z,99537.91
2018-03-24T13:13:05.692Z,99540.66
2018-03-24T13:15:33.959Z,99538.42
2018-03-24T13:18:02.297Z,99536.19
2018-03-24T13:20:30.568Z,99539.05
2018-03-24T13:22:58.835Z,99529.45
2018-03-24T13:25:27.112Z,99530.44
2018-03-24T13:27:55.381Z,99522.09
2018-03-24T13:30:23.669Z,99522.80
2018-03-24T13:32:51.936Z,99524.42
2018-03-24T13:35:20.220Z,99527.34
2018-03-24T13:37:48.497Z,99529.08
2018-03-24T13:40:16.793Z,99523.73
2018-03-24T13:42:45.079Z,99525.55
2018-03-24T13:45:13.343Z,99527.66
2018-03-24T13:47:41.627Z,99528.20
2018-03-24T13:50:09.900Z,99533.80
2018-03-24T13:52:38.180Z,99529.27
2018-03-24T13:55:06.452Z,99525.44
2018-03-24T13:57:34.737Z,99536.61
2018-03-24T14:00:02.999Z,99522.59
2018-03-24T14:02:31.296Z,99533.05
2018-03-24T14:04:59.569Z,99519.25
2018-03-24T14:07:27.836Z,99521.23
2018-03-24T14:09:56.116Z,99522.69
2018-03-24T14:12:24.391Z,99522.19
2018-03-24T14:14:52.664Z,99511.64
2018-03-24T14:17:20.932Z,99512.22
2018-03-24T14:19:49.216Z,99512.66
2018-03-24T14:22:17.492Z,99506.80
2018-03-24T14:24:45.773Z,99503.83
2018-03-24T14:27:14.073Z,99508.66
2018-03-24T14:29:42.356Z,99516.28
2018-03-24T14:32:10.631Z,99510.46
2018-03-24T14:34:38.900Z,99508.64
2018-03-24T14:37:07.180Z,99503.90
2018-03-24T14:39:35.460Z,99506.95
2018-03-24T14:42:03.744Z,99502.09
2018-03-24T14:44:32.024Z,99502.87
2018-03-24T14:47:00.299Z,99497.85
2018-03-24T14:49:28.564Z,99498.00
2018-03-24T14:51:56.843Z,99492.95
2018-03-24T14:54:25.164Z,99487.64
2018-03-24T14:56:53.380Z,99491.91
2018-03-24T14:59:21.660Z,99483.70
2018-03-24T15:01:49.929Z,99483.05
2018-03-24T15:04:18.217Z,99478.91
2018-03-24T15:06:46.488Z,99481.27
2018-03-24T15:09:14.776Z,99480.80
2018-03-24T15:11:43.052Z,99493.63
2018-03-24T15:14:11.337Z,99487.50
2018-03-24T15:16:39.604Z,99484.85
2018-03-24T15:19:07.879Z,99491.76
2018-03-24T15:21:36.774Z,99496.25
2018-03-24T15:24:05.013Z,99493.05
2018-03-24T15:26:33.296Z,99487.80
2018-03-24T15:29:13.395Z,99490.56
2018-03-24T15:31:53.499Z,99484.47
2018-03-24T15:34:33.446Z,99485.45
2018-03-24T15:37:01.732Z,99491.41
2018-03-24T15:39:30.005Z,99496.11
2018-03-24T15:41:58.283Z,99497.11
2018-03-24T15:44:26.563Z,99482.08
2018-03-24T15:46:54.832Z,99490.30
2018-03-24T15:49:23.128Z,99489.06
2018-03-24T15:51:51.404Z,99484.75
2018-03-24T15:54:19.732Z,99486.08
2018-03-24T15:56:47.956Z,99487.61
2018-03-24T15:59:16.238Z,99482.28
2018-03-24T16:01:44.536Z,99497.05
2018-03-24T16:04:12.787Z,99489.33
2018-03-24T16:06:41.052Z,99500.35
2018-03-24T16:09:09.320Z,99507.29
2018-03-24T16:11:38.333Z,99512.44
2018-03-24T16:14:10.015Z,99515.00
2018-03-24T16:16:38.303Z,99516.77
2018-03-24T16:19:06.611Z,99515.88
2018-03-24T16:21:34.894Z,99513.13
2018-03-24T16:24:03.172Z,99523.39
2018-03-24T16:26:31.464Z,99524.23
2018-03-24T16:28:59.741Z,99530.73
2018-03-24T16:31:28.012Z,99535.16
2018-03-24T16:33:56.309Z,99534.10
2018-03-24T16:36:24.587Z,99540.68
2018-03-24T16:38:52.881Z,99539.09
2018-03-24T16:41:21.143Z,99543.61
2018-03-24T16:43:49.425Z,99542.62
2018-03-24T16:46:17.700Z,99546.08
2018-03-24T16:48:47.002Z,99548.35
2018-03-24T16:51:15.280Z,99554.50
2018-03-24T16:53:43.583Z,99550.68
2018-03-24T16:56:11.888Z,99555.84
2018-03-24T16:58:40.164Z,99553.85
2018-03-24T17:01:10.386Z,99557.17
2018-03-24T17:03:41.907Z,99567.91
2018-03-24T17:06:10.187Z,99567.95
2018-03-24T17:08:38.461Z,99570.68
2018-03-24T17:11:06.766Z,99573.53
2018-03-24T17:13:35.038Z,99575.97
2018-03-24T17:16:03.305Z,99579.02
2018-03-24T17:18:31.592Z,99582.32
2018-03-24T17:20:59.896Z,99588.87
2018-03-24T17:23:28.174Z,99589.55
2018-03-24T17:25:56.448Z,99591.47
2018-03-24T17:28:24.724Z,99596.06
2018-03-24T17:30:52.996Z,99597.27
2018-03-24T17:33:21.280Z,99599.95
2018-03-24T17:35:49.551Z,99605.30
2018-03-24T17:38:17.837Z,99603.70
2018-03-24T17:40:46.168Z,99612.33
2018-03-24T17:43:14.445Z,99610.78
2018-03-24T17:45:42.728Z,99612.91
2018-03-24T17:48:11.013Z,99619.13
2018-03-24T17:50:39.303Z,99609.70
2018-03-24T17:53:07.581Z,99620.41
2018-03-24T17:55:35.851Z,99622.24
2018-03-24T17:58:04.150Z,99621.73
2018-03-24T18:00:32.434Z,99625.95
2018-03-24T18:03:00.704Z,99626.18
2018-03-24T18:05:28.979Z,99625.47
2018-03-24T18:07:57.296Z,99626.75
2018-03-24T18:10:25.572Z,99628.55
2018-03-24T18:12:53.860Z,99627.55
2018-03-24T18:15:22.128Z,99630.59
2018-03-24T18:17:50.414Z,99633.73
2018-03-24T18:20:18.696Z,99638.89
2018-03-24T18:22:46.972Z,99636.22
2018-03-24T18:25:15.263Z,99640.11
2018-03-24T18:27:43.528Z,99643.02
2018-03-24T18:30:11.812Z,99655.03
2018-03-24T18:32:40.096Z,99649.25
2018-03-24T18:35:08.409Z,99651.48
2018-03-24T18:37:36.665Z,99653.59
2018-03-24T18:40:04.929Z,99664.41
2018-03-24T18:42:33.216Z,99663.91
2018-03-24T18:45:01.478Z,99665.70
2018-03-24T18:47:29.753Z,99667.22
2018-03-24T18:50:04.284Z,99667.59
2018-03-24T18:52:49.908Z,99673.82
2018-03-24T18:55:18.189Z,99671.60
2018-03-24T18:57:46.479Z,99673.34
2018-03-24T19:00:17.954Z,99675.63
2018-03-24T19:02:46.201Z,99671.73
2018-03-24T19:05:14.472Z,99678.05
2018-03-24T19:07:42.760Z,99682.86
2018-03-24T19:10:11.044Z,99679.58
2018-03-24T19:12:39.322Z,99678.41
2018-03-24T19:15:07.612Z,99682.30
2018-03-24T19:17:35.888Z,99683.48
2018-03-24T19:20:04.187Z,99687.23
2018-03-24T19:22:32.450Z,99697.05
2018-03-24T19:25:00.756Z,99697.31
2018-03-24T19:27:30.766Z,99696.52
2018-03-24T19:29:59.292Z,99701.81
2018-03-24T19:32:27.592Z,99700.52
2018-03-24T19:34:55.887Z,99699.65
2018-03-24T19:37:24.163Z,99703.44
2018-03-24T19:39:52.436Z,99708.26
2018-03-24T19:42:20.716Z,99703.30
2018-03-24T19:44:48.988Z,99707.06
2018-03-24T19:47:17.282Z,99708.78
2018-03-24T19:49:45.562Z,99708.55
2018-03-24T19:52:13.840Z,99704.66
2018-03-24T19:54:42.140Z,99699.44
2018-03-24T19:57:10.415Z,99703.59
2018-03-24T19:59:38.703Z,99707.44
2018-03-24T20:02:06.964Z,99710.16
2018-03-24T20:04:35.244Z,99704.11
2018-03-24T20:07:03.517Z,99716.77
2018-03-24T20:09:31.793Z,99709.69
2018-03-24T20:12:00.067Z,99707.19
2018-03-24T20:14:28.351Z,99707.00
2018-03-24T20:16:56.620Z,99713.95
2018-03-24T20:19:24.893Z,99715.04
2018-03-24T20:21:53.169Z,99723.75
2018-03-24T20:24:21.432Z,99715.11
2018-03-24T20:26:49.717Z,99720.36
2018-03-24T20:29:17.987Z,99717.27
2018-03-24T20:31:46.260Z,99713.66
2018-03-24T20:34:14.520Z,99710.37
2018-03-24T20:36:42.819Z,99717.08
2018-03-24T20:39:11.092Z,99714.89
2018-03-24T20:41:39.367Z,99712.09
2018-03-24T20:44:07.645Z,99716.00
2018-03-24T20:46:35.916Z,99719.19
2018-03-24T20:49:04.196Z,99716.66
2018-03-24T20:51:32.468Z,99718.84
2018-03-24T20:54:00.748Z,99723.98
2018-03-24T20:56:29.025Z,99726.28
2018-03-24T20:58:57.312Z,99724.91
2018-03-24T21:01:25.629Z,99728.31
2018-03-24T21:03:53.864Z,99730.92
2018-03-24T21:06:22.149Z,99731.38
2018-03-24T21:08:50.420Z,99733.16
2018-03-24T21:11:18.708Z,99747.86
2018-03-24T21:13:46.977Z,99742.72
2018-03-24T21:16:15.270Z,99749.70
2018-03-24T21:18:43.528Z,99751.80
2018-03-24T21:21:11.823Z,99748.84
2018-03-24T21:23:40.112Z,99750.13
2018-03-24T21:26:08.376Z,99753.11
2018-03-24T21:28:36.652Z,99748.05
2018-03-24T21:31:04.929Z,99753.70
2018-03-24T21:33:33.201Z,99755.05
2018-03-24T21:36:01.467Z,99752.47
2018-03-24T21:38:29.768Z,99753.35
2018-03-24T21:40:58.053Z,99755.89
2018-03-24T21:43:26.355Z,99759.36
2018-03-24T21:45:54.630Z,99755.48
2018-03-24T21:48:22.901Z,99768.40
2018-03-24T21:50:51.184Z,99763.64
2018-03-24T21:53:19.447Z,99761.48
2018-03-24T21:55:47.728Z,99767.10
2018-03-24T21:58:16.000Z,99762.84
2018-03-24T22:00:44.287Z,99771.45
2018-03-24T22:03:12.564Z,99773.97
2018-03-24T22:05:40.848Z,99763.27
2018-03-24T22:08:09.119Z,99775.31
2018-03-24T22:10:37.410Z,99773.98
2018-03-24T22:13:05.680Z,99770.57
2018-03-24T22:15:33.954Z,99769.25
2018-03-24T22:18:02.248Z,99774.84
2018-03-24T22:20:30.515Z,99773.11
2018-03-24T22:22:58.807Z,99773.56
2018-03-24T22:25:27.171Z,99772.28
2018-03-24T22:27:55.457Z,99771.87
2018-03-24T22:30:23.715Z,99767.96
2018-03-24T22:32:52.955Z,99775.75
2018-03-24T22:35:21.216Z,99770.92
2018-03-24T22:37:49.492Z,99773.14
2018-03-24T22:40:17.776Z,99776.59
2018-03-24T22:42:46.043Z,99773.60
2018-03-24T22:45:14.402Z,99770.56
2018-03-24T22:47:42.603Z,99778.78
2018-03-24T22:50:10.885Z,99775.30
2018-03-24T22:52:39.148Z,99779.61
2018-03-24T22:55:07.430Z,99778.29
2018-03-24T22:57:35.696Z,99780.44
2018-03-24T23:00:03.965Z,99777.02
2018-03-24T23:02:32.247Z,99778.31
2018-03-24T23:05:00.524Z,99786.52
2018-03-24T23:07:28.812Z,99785.69
2018-03-24T23:09:57.080Z,99774.51
2018-03-24T23:12:25.371Z,99776.64
2018-03-24T23:14:53.702Z,99781.80
2018-03-24T23:17:21.916Z,99776.22
2018-03-24T23:19:50.192Z,99780.50
2018-03-24T23:22:18.464Z,99773.23
2018-03-24T23:24:46.745Z,99772.79
2018-03-24T23:27:15.004Z,99777.92
2018-03-24T23:29:43.292Z,99783.95
2018-03-24T23:32:11.563Z,99776.62
2018-03-24T23:34:39.848Z,99785.66
2018-03-24T23:37:08.112Z,99786.95
2018-03-24T23:39:39.850Z,99780.95
2018-03-24T23:42:08.111Z,99782.66
2018-03-24T23:44:36.387Z,99782.67
2018-03-24T23:47:04.663Z,99794.71
2018-03-24T23:49:32.931Z,99795.50
2018-03-24T23:52:01.217Z,99795.10
2018-03-24T23:54:29.499Z,99789.97
2018-03-24T23:56:57.784Z,99797.30
2018-03-24T23:59:26.061Z,99794.69
